sensor_id;sensor_type;location;lat;lon;timestamp;P1;durP1;ratioP1;P2;durP2;ratioP2
11024;SDS011;22890;51.820;8.682;2023-07-29T00:01:26;2.40;;;1.57;;
11024;SDS011;22890;51.820;8.682;2023-07-29T00:03:53;2.13;;;1.77;;
11024;SDS011;22890;51.820;8.682;2023-07-29T00:06:20;5.50;;;1.60;;
11024;SDS011;22890;51.820;8.682;2023-07-29T00:08:46;2.40;;;1.83;;
11024;SDS011;22890;51.820;8.682;2023-07-29T00:11:13;2.43;;;1.50;;
11024;SDS011;22890;51.820;8.682;2023-07-29T00:13:40;3.70;;;1.43;;
11024;SDS011;22890;51.820;8.682;2023-07-29T00:16:07;2.77;;;1.80;;
11024;SDS011;22890;51.820;8.682;2023-07-29T00:18:33;2.53;;;1.30;;
11024;SDS011;22890;51.820;8.682;2023-07-29T00:21:00;6.17;;;1.90;;
11024;SDS011;22890;51.820;8.682;2023-07-29T00:23:27;2.63;;;1.60;;
11024;SDS011;22890;51.820;8.682;2023-07-29T00:25:54;3.43;;;1.60;;
11024;SDS011;22890;51.820;8.682;2023-07-29T00:28:20;3.13;;;1.67;;
11024;SDS011;22890;51.820;8.682;2023-07-29T00:30:49;2.10;;;1.77;;
11024;SDS011;22890;51.820;8.682;2023-07-29T00:33:16;4.33;;;1.80;;
11024;SDS011;22890;51.820;8.682;2023-07-29T00:35:42;1.80;;;1.57;;
11024;SDS011;22890;51.820;8.682;2023-07-29T00:38:09;2.07;;;1.70;;
11024;SDS011;22890;51.820;8.682;2023-07-29T00:40:36;3.40;;;1.80;;
11024;SDS011;22890;51.820;8.682;2023-07-29T00:43:03;2.20;;;1.70;;
11024;SDS011;22890;51.820;8.682;2023-07-29T00:45:30;3.90;;;1.40;;
11024;SDS011;22890;51.820;8.682;2023-07-29T00:47:59;2.50;;;1.83;;
11024;SDS011;22890;51.820;8.682;2023-07-29T00:50:27;1.93;;;1.80;;
11024;SDS011;22890;51.820;8.682;2023-07-29T00:52:59;8.43;;;1.93;;
11024;SDS011;22890;51.820;8.682;2023-07-29T00:55:25;2.60;;;1.73;;
11024;SDS011;22890;51.820;8.682;2023-07-29T00:57:52;4.00;;;1.80;;
11024;SDS011;22890;51.820;8.682;2023-07-29T01:00:21;4.50;;;1.80;;
11024;SDS011;22890;51.820;8.682;2023-07-29T01:02:48;1.70;;;1.60;;
11024;SDS011;22890;51.820;8.682;2023-07-29T01:05:16;9.37;;;2.00;;
11024;SDS011;22890;51.820;8.682;2023-07-29T01:07:49;2.80;;;2.00;;
11024;SDS011;22890;51.820;8.682;2023-07-29T01:10:30;4.63;;;1.80;;
11024;SDS011;22890;51.820;8.682;2023-07-29T01:13:23;5.03;;;1.87;;
11024;SDS011;22890;51.820;8.682;2023-07-29T01:16:08;1.70;;;1.60;;
11024;SDS011;22890;51.820;8.682;2023-07-29T01:18:43;2.20;;;1.63;;
11024;SDS011;22890;51.820;8.682;2023-07-29T01:21:13;2.70;;;1.70;;
11024;SDS011;22890;51.820;8.682;2023-07-29T01:23:42;6.23;;;1.70;;
11024;SDS011;22890;51.820;8.682;2023-07-29T01:26:08;4.47;;;1.80;;
11024;SDS011;22890;51.820;8.682;2023-07-29T01:28:35;2.93;;;1.60;;
11024;SDS011;22890;51.820;8.682;2023-07-29T01:31:23;4.90;;;1.90;;
11024;SDS011;22890;51.820;8.682;2023-07-29T01:33:56;3.17;;;1.60;;
11024;SDS011;22890;51.820;8.682;2023-07-29T01:36:57;3.10;;;1.53;;
11024;SDS011;22890;51.820;8.682;2023-07-29T01:39:29;2.00;;;1.80;;
11024;SDS011;22890;51.820;8.682;2023-07-29T01:41:59;2.67;;;1.70;;
11024;SDS011;22890;51.820;8.682;2023-07-29T01:44:27;2.30;;;2.00;;
11024;SDS011;22890;51.820;8.682;2023-07-29T01:46:55;2.97;;;2.00;;
11024;SDS011;22890;51.820;8.682;2023-07-29T01:49:22;2.47;;;1.90;;
11024;SDS011;22890;51.820;8.682;2023-07-29T01:51:49;8.00;;;2.20;;
11024;SDS011;22890;51.820;8.682;2023-07-29T01:54:16;5.63;;;2.20;;
11024;SDS011;22890;51.820;8.682;2023-07-29T01:56:42;7.70;;;3.13;;
11024;SDS011;22890;51.820;8.682;2023-07-29T01:59:09;9.13;;;3.77;;
11024;SDS011;22890;51.820;8.682;2023-07-29T02:01:36;6.00;;;2.50;;
11024;SDS011;22890;51.820;8.682;2023-07-29T02:04:03;4.90;;;2.60;;
11024;SDS011;22890;51.820;8.682;2023-07-29T02:06:30;4.50;;;2.70;;
11024;SDS011;22890;51.820;8.682;2023-07-29T02:08:57;2.73;;;2.43;;
11024;SDS011;22890;51.820;8.682;2023-07-29T02:11:23;3.77;;;2.50;;
11024;SDS011;22890;51.820;8.682;2023-07-29T02:13:54;7.87;;;2.80;;
11024;SDS011;22890;51.820;8.682;2023-07-29T02:16:21;6.13;;;2.93;;
11024;SDS011;22890;51.820;8.682;2023-07-29T02:18:51;3.97;;;2.27;;
11024;SDS011;22890;51.820;8.682;2023-07-29T02:21:21;7.13;;;3.13;;
11024;SDS011;22890;51.820;8.682;2023-07-29T02:23:48;13.47;;;3.30;;
11024;SDS011;22890;51.820;8.682;2023-07-29T02:26:16;8.83;;;2.80;;
11024;SDS011;22890;51.820;8.682;2023-07-29T02:28:43;16.03;;;3.00;;
11024;SDS011;22890;51.820;8.682;2023-07-29T02:33:48;14.77;;;3.20;;
11024;SDS011;22890;51.820;8.682;2023-07-29T02:36:16;21.70;;;3.43;;
11024;SDS011;22890;51.820;8.682;2023-07-29T02:38:44;17.40;;;3.70;;
11024;SDS011;22890;51.820;8.682;2023-07-29T02:41:11;9.90;;;3.80;;
11024;SDS011;22890;51.820;8.682;2023-07-29T02:43:48;16.93;;;4.37;;
11024;SDS011;22890;51.820;8.682;2023-07-29T02:46:17;4.77;;;3.00;;
11024;SDS011;22890;51.820;8.682;2023-07-29T02:48:44;5.00;;;3.10;;
11024;SDS011;22890;51.820;8.682;2023-07-29T02:51:11;8.17;;;3.00;;
11024;SDS011;22890;51.820;8.682;2023-07-29T02:53:38;6.47;;;3.17;;
11024;SDS011;22890;51.820;8.682;2023-07-29T02:56:05;8.53;;;4.00;;
11024;SDS011;22890;51.820;8.682;2023-07-29T02:58:36;10.10;;;3.40;;
11024;SDS011;22890;51.820;8.682;2023-07-29T03:01:04;7.00;;;3.10;;
11024;SDS011;22890;51.820;8.682;2023-07-29T03:03:31;5.60;;;2.80;;
11024;SDS011;22890;51.820;8.682;2023-07-29T03:06:06;15.83;;;4.00;;
11024;SDS011;22890;51.820;8.682;2023-07-29T03:08:34;6.07;;;3.13;;
11024;SDS011;22890;51.820;8.682;2023-07-29T03:11:35;7.37;;;3.80;;
11024;SDS011;22890;51.820;8.682;2023-07-29T03:13:55;6.50;;;3.33;;
11024;SDS011;22890;51.820;8.682;2023-07-29T03:16:23;14.53;;;4.30;;
11024;SDS011;22890;51.820;8.682;2023-07-29T03:18:53;11.97;;;4.43;;
11024;SDS011;22890;51.820;8.682;2023-07-29T03:21:20;14.93;;;4.00;;
11024;SDS011;22890;51.820;8.682;2023-07-29T03:23:47;6.27;;;3.30;;
11024;SDS011;22890;51.820;8.682;2023-07-29T03:26:13;11.47;;;4.27;;
11024;SDS011;22890;51.820;8.682;2023-07-29T03:28:41;7.53;;;3.10;;
11024;SDS011;22890;51.820;8.682;2023-07-29T03:31:09;6.63;;;3.83;;
11024;SDS011;22890;51.820;8.682;2023-07-29T03:33:36;5.87;;;3.13;;
11024;SDS011;22890;51.820;8.682;2023-07-29T03:36:03;6.57;;;2.77;;
11024;SDS011;22890;51.820;8.682;2023-07-29T03:38:30;4.50;;;2.60;;
11024;SDS011;22890;51.820;8.682;2023-07-29T03:40:59;10.50;;;3.17;;
11024;SDS011;22890;51.820;8.682;2023-07-29T03:43:26;9.17;;;3.50;;
11024;SDS011;22890;51.820;8.682;2023-07-29T03:45:55;9.57;;;3.50;;
11024;SDS011;22890;51.820;8.682;2023-07-29T03:48:22;4.10;;;3.13;;
11024;SDS011;22890;51.820;8.682;2023-07-29T03:50:48;9.00;;;2.93;;
11024;SDS011;22890;51.820;8.682;2023-07-29T03:53:15;5.87;;;3.43;;
11024;SDS011;22890;51.820;8.682;2023-07-29T03:55:43;11.70;;;3.30;;
11024;SDS011;22890;51.820;8.682;2023-07-29T03:58:10;7.03;;;3.43;;
11024;SDS011;22890;51.820;8.682;2023-07-29T04:00:37;4.53;;;2.77;;
11024;SDS011;22890;51.820;8.682;2023-07-29T04:03:03;4.43;;;3.10;;
11024;SDS011;22890;51.820;8.682;2023-07-29T04:05:32;7.00;;;2.90;;
11024;SDS011;22890;51.820;8.682;2023-07-29T04:07:59;3.53;;;2.83;;
11024;SDS011;22890;51.820;8.682;2023-07-29T04:10:25;7.13;;;2.67;;
11024;SDS011;22890;51.820;8.682;2023-07-29T04:12:52;4.37;;;3.03;;
11024;SDS011;22890;51.820;8.682;2023-07-29T04:15:19;4.90;;;3.40;;
11024;SDS011;22890;51.820;8.682;2023-07-29T04:17:46;3.63;;;2.80;;
11024;SDS011;22890;51.820;8.682;2023-07-29T04:20:13;5.53;;;3.10;;
11024;SDS011;22890;51.820;8.682;2023-07-29T04:22:40;6.00;;;3.10;;
11024;SDS011;22890;51.820;8.682;2023-07-29T04:25:06;4.13;;;3.30;;
11024;SDS011;22890;51.820;8.682;2023-07-29T04:27:33;6.93;;;2.77;;
11024;SDS011;22890;51.820;8.682;2023-07-29T04:30:00;7.70;;;3.70;;
11024;SDS011;22890;51.820;8.682;2023-07-29T04:32:27;6.90;;;3.30;;
11024;SDS011;22890;51.820;8.682;2023-07-29T04:34:54;6.07;;;3.20;;
11024;SDS011;22890;51.820;8.682;2023-07-29T04:37:20;6.37;;;3.33;;
11024;SDS011;22890;51.820;8.682;2023-07-29T04:39:47;4.80;;;3.10;;
11024;SDS011;22890;51.820;8.682;2023-07-29T04:42:14;5.17;;;3.50;;
11024;SDS011;22890;51.820;8.682;2023-07-29T04:44:41;3.97;;;3.13;;
11024;SDS011;22890;51.820;8.682;2023-07-29T04:47:08;7.67;;;3.57;;
11024;SDS011;22890;51.820;8.682;2023-07-29T04:49:35;4.83;;;3.40;;
11024;SDS011;22890;51.820;8.682;2023-07-29T04:52:02;6.53;;;2.93;;
11024;SDS011;22890;51.820;8.682;2023-07-29T04:54:29;7.63;;;3.50;;
11024;SDS011;22890;51.820;8.682;2023-07-29T04:56:56;8.10;;;3.30;;
11024;SDS011;22890;51.820;8.682;2023-07-29T04:59:22;3.23;;;2.43;;
11024;SDS011;22890;51.820;8.682;2023-07-29T05:01:50;3.67;;;2.97;;
11024;SDS011;22890;51.820;8.682;2023-07-29T05:04:20;6.23;;;3.40;;
11024;SDS011;22890;51.820;8.682;2023-07-29T05:06:47;5.67;;;3.07;;
11024;SDS011;22890;51.820;8.682;2023-07-29T05:09:14;8.93;;;3.20;;
11024;SDS011;22890;51.820;8.682;2023-07-29T05:11:42;4.03;;;2.83;;
11024;SDS011;22890;51.820;8.682;2023-07-29T05:14:12;3.53;;;2.90;;
11024;SDS011;22890;51.820;8.682;2023-07-29T05:16:41;6.37;;;3.30;;
11024;SDS011;22890;51.820;8.682;2023-07-29T05:19:08;4.07;;;2.80;;
11024;SDS011;22890;51.820;8.682;2023-07-29T05:21:35;5.57;;;3.33;;
11024;SDS011;22890;51.820;8.682;2023-07-29T05:24:03;7.43;;;4.00;;
11024;SDS011;22890;51.820;8.682;2023-07-29T05:26:30;6.17;;;3.60;;
11024;SDS011;22890;51.820;8.682;2023-07-29T05:28:57;7.93;;;3.43;;
11024;SDS011;22890;51.820;8.682;2023-07-29T05:31:24;5.73;;;3.37;;
11024;SDS011;22890;51.820;8.682;2023-07-29T05:33:51;4.47;;;3.40;;
11024;SDS011;22890;51.820;8.682;2023-07-29T05:36:18;5.17;;;3.80;;
11024;SDS011;22890;51.820;8.682;2023-07-29T05:38:44;5.87;;;3.83;;
11024;SDS011;22890;51.820;8.682;2023-07-29T05:41:11;4.20;;;3.80;;
11024;SDS011;22890;51.820;8.682;2023-07-29T05:43:38;4.93;;;4.03;;
11024;SDS011;22890;51.820;8.682;2023-07-29T05:46:06;10.73;;;3.93;;
11024;SDS011;22890;51.820;8.682;2023-07-29T05:48:33;5.17;;;3.30;;
11024;SDS011;22890;51.820;8.682;2023-07-29T05:51:01;3.70;;;3.40;;
11024;SDS011;22890;51.820;8.682;2023-07-29T05:53:28;3.70;;;3.40;;
11024;SDS011;22890;51.820;8.682;2023-07-29T05:55:55;4.77;;;3.53;;
11024;SDS011;22890;51.820;8.682;2023-07-29T05:58:22;4.77;;;3.40;;
11024;SDS011;22890;51.820;8.682;2023-07-29T06:00:49;4.33;;;3.30;;
11024;SDS011;22890;51.820;8.682;2023-07-29T06:03:18;7.10;;;3.37;;
11024;SDS011;22890;51.820;8.682;2023-07-29T06:05:45;6.07;;;3.10;;
11024;SDS011;22890;51.820;8.682;2023-07-29T06:08:11;5.03;;;3.30;;
11024;SDS011;22890;51.820;8.682;2023-07-29T06:10:38;4.53;;;3.37;;
11024;SDS011;22890;51.820;8.682;2023-07-29T06:13:05;4.30;;;2.93;;
11024;SDS011;22890;51.820;8.682;2023-07-29T06:15:32;5.10;;;3.43;;
11024;SDS011;22890;51.820;8.682;2023-07-29T06:17:59;3.97;;;3.03;;
11024;SDS011;22890;51.820;8.682;2023-07-29T06:20:26;4.90;;;3.00;;
11024;SDS011;22890;51.820;8.682;2023-07-29T06:22:53;3.60;;;2.70;;
11024;SDS011;22890;51.820;8.682;2023-07-29T06:25:20;2.83;;;2.60;;
11024;SDS011;22890;51.820;8.682;2023-07-29T06:27:47;2.90;;;2.40;;
11024;SDS011;22890;51.820;8.682;2023-07-29T06:30:13;3.53;;;2.30;;
11024;SDS011;22890;51.820;8.682;2023-07-29T06:32:40;3.03;;;2.40;;
11024;SDS011;22890;51.820;8.682;2023-07-29T06:35:07;13.10;;;2.40;;
11024;SDS011;22890;51.820;8.682;2023-07-29T06:37:34;3.83;;;2.43;;
11024;SDS011;22890;51.820;8.682;2023-07-29T06:40:00;4.13;;;2.20;;
11024;SDS011;22890;51.820;8.682;2023-07-29T06:42:27;2.43;;;2.20;;
11024;SDS011;22890;51.820;8.682;2023-07-29T06:44:54;3.13;;;2.53;;
11024;SDS011;22890;51.820;8.682;2023-07-29T06:47:21;2.47;;;2.27;;
11024;SDS011;22890;51.820;8.682;2023-07-29T06:49:47;2.60;;;2.00;;
11024;SDS011;22890;51.820;8.682;2023-07-29T06:52:14;2.50;;;2.10;;
11024;SDS011;22890;51.820;8.682;2023-07-29T06:54:41;2.63;;;2.43;;
11024;SDS011;22890;51.820;8.682;2023-07-29T06:57:08;2.27;;;2.07;;
11024;SDS011;22890;51.820;8.682;2023-07-29T06:59:35;3.97;;;1.80;;
11024;SDS011;22890;51.820;8.682;2023-07-29T07:02:01;2.53;;;2.33;;
11024;SDS011;22890;51.820;8.682;2023-07-29T07:04:28;1.87;;;1.77;;
11024;SDS011;22890;51.820;8.682;2023-07-29T07:06:55;3.00;;;2.30;;
11024;SDS011;22890;51.820;8.682;2023-07-29T07:09:22;2.13;;;1.97;;
11024;SDS011;22890;51.820;8.682;2023-07-29T07:11:49;3.20;;;2.13;;
11024;SDS011;22890;51.820;8.682;2023-07-29T07:14:15;3.40;;;2.33;;
11024;SDS011;22890;51.820;8.682;2023-07-29T07:16:42;2.80;;;2.20;;
11024;SDS011;22890;51.820;8.682;2023-07-29T07:19:09;3.93;;;2.77;;
11024;SDS011;22890;51.820;8.682;2023-07-29T07:21:35;4.13;;;3.10;;
11024;SDS011;22890;51.820;8.682;2023-07-29T07:24:02;4.17;;;2.80;;
11024;SDS011;22890;51.820;8.682;2023-07-29T07:26:29;3.67;;;3.17;;
11024;SDS011;22890;51.820;8.682;2023-07-29T07:28:56;7.17;;;5.03;;
11024;SDS011;22890;51.820;8.682;2023-07-29T07:31:23;6.37;;;5.13;;
11024;SDS011;22890;51.820;8.682;2023-07-29T07:33:49;11.13;;;7.77;;
11024;SDS011;22890;51.820;8.682;2023-07-29T07:36:16;10.23;;;8.27;;
11024;SDS011;22890;51.820;8.682;2023-07-29T07:38:43;14.07;;;9.93;;
11024;SDS011;22890;51.820;8.682;2023-07-29T07:41:10;13.80;;;10.67;;
11024;SDS011;22890;51.820;8.682;2023-07-29T07:43:37;15.00;;;11.03;;
11024;SDS011;22890;51.820;8.682;2023-07-29T07:46:04;13.40;;;10.40;;
11024;SDS011;22890;51.820;8.682;2023-07-29T07:48:31;14.27;;;10.23;;
11024;SDS011;22890;51.820;8.682;2023-07-29T07:50:59;15.93;;;11.33;;
11024;SDS011;22890;51.820;8.682;2023-07-29T07:53:26;13.57;;;10.03;;
11024;SDS011;22890;51.820;8.682;2023-07-29T07:55:52;13.07;;;11.03;;
11024;SDS011;22890;51.820;8.682;2023-07-29T07:58:19;13.27;;;11.00;;
11024;SDS011;22890;51.820;8.682;2023-07-29T08:00:46;12.70;;;10.60;;
11024;SDS011;22890;51.820;8.682;2023-07-29T08:03:13;11.67;;;10.37;;
11024;SDS011;22890;51.820;8.682;2023-07-29T08:05:40;13.50;;;9.77;;
11024;SDS011;22890;51.820;8.682;2023-07-29T08:08:06;11.83;;;9.60;;
11024;SDS011;22890;51.820;8.682;2023-07-29T08:10:33;11.10;;;9.50;;
11024;SDS011;22890;51.820;8.682;2023-07-29T08:13:00;10.57;;;8.83;;
11024;SDS011;22890;51.820;8.682;2023-07-29T08:15:27;11.73;;;10.00;;
11024;SDS011;22890;51.820;8.682;2023-07-29T08:17:54;8.70;;;7.80;;
11024;SDS011;22890;51.820;8.682;2023-07-29T08:20:20;10.30;;;8.07;;
11024;SDS011;22890;51.820;8.682;2023-07-29T08:22:47;12.53;;;9.00;;
11024;SDS011;22890;51.820;8.682;2023-07-29T08:25:14;8.73;;;7.77;;
11024;SDS011;22890;51.820;8.682;2023-07-29T08:27:41;9.23;;;8.27;;
11024;SDS011;22890;51.820;8.682;2023-07-29T08:30:08;9.33;;;8.33;;
11024;SDS011;22890;51.820;8.682;2023-07-29T08:32:35;8.63;;;7.30;;
11024;SDS011;22890;51.820;8.682;2023-07-29T08:35:02;8.10;;;6.97;;
11024;SDS011;22890;51.820;8.682;2023-07-29T08:37:29;7.83;;;7.13;;
11024;SDS011;22890;51.820;8.682;2023-07-29T08:39:55;8.93;;;8.13;;
11024;SDS011;22890;51.820;8.682;2023-07-29T08:42:22;8.10;;;7.27;;
11024;SDS011;22890;51.820;8.682;2023-07-29T08:44:54;8.30;;;6.97;;
11024;SDS011;22890;51.820;8.682;2023-07-29T08:47:22;7.90;;;7.13;;
11024;SDS011;22890;51.820;8.682;2023-07-29T08:49:49;8.30;;;5.33;;
11024;SDS011;22890;51.820;8.682;2023-07-29T08:52:18;5.00;;;4.60;;
11024;SDS011;22890;51.820;8.682;2023-07-29T08:54:46;6.63;;;4.43;;
11024;SDS011;22890;51.820;8.682;2023-07-29T08:57:13;5.20;;;4.73;;
11024;SDS011;22890;51.820;8.682;2023-07-29T08:59:40;4.63;;;4.23;;
11024;SDS011;22890;51.820;8.682;2023-07-29T09:02:07;6.63;;;4.60;;
11024;SDS011;22890;51.820;8.682;2023-07-29T09:04:34;5.23;;;4.73;;
11024;SDS011;22890;51.820;8.682;2023-07-29T09:07:01;4.70;;;4.20;;
11024;SDS011;22890;51.820;8.682;2023-07-29T09:09:28;3.70;;;3.47;;
11024;SDS011;22890;51.820;8.682;2023-07-29T09:11:55;3.60;;;3.10;;
11024;SDS011;22890;51.820;8.682;2023-07-29T09:14:23;4.40;;;3.20;;
11024;SDS011;22890;51.820;8.682;2023-07-29T09:16:50;3.90;;;3.60;;
11024;SDS011;22890;51.820;8.682;2023-07-29T09:19:17;4.10;;;3.43;;
11024;SDS011;22890;51.820;8.682;2023-07-29T09:21:47;4.60;;;2.70;;
11024;SDS011;22890;51.820;8.682;2023-07-29T09:24:16;2.43;;;2.23;;
11024;SDS011;22890;51.820;8.682;2023-07-29T09:26:50;3.00;;;2.73;;
11024;SDS011;22890;51.820;8.682;2023-07-29T09:29:22;2.20;;;1.87;;
11024;SDS011;22890;51.820;8.682;2023-07-29T09:31:50;2.13;;;1.80;;
11024;SDS011;22890;51.820;8.682;2023-07-29T09:34:16;1.73;;;1.63;;
11024;SDS011;22890;51.820;8.682;2023-07-29T09:36:44;1.47;;;1.37;;
11024;SDS011;22890;51.820;8.682;2023-07-29T09:39:11;3.20;;;1.10;;
11024;SDS011;22890;51.820;8.682;2023-07-29T09:41:39;1.40;;;1.30;;
11024;SDS011;22890;51.820;8.682;2023-07-29T09:44:06;2.03;;;1.30;;
11024;SDS011;22890;51.820;8.682;2023-07-29T09:46:36;1.27;;;0.97;;
11024;SDS011;22890;51.820;8.682;2023-07-29T09:49:05;1.60;;;1.30;;
11024;SDS011;22890;51.820;8.682;2023-07-29T09:51:39;2.80;;;1.23;;
11024;SDS011;22890;51.820;8.682;2023-07-29T09:54:06;0.97;;;0.97;;
11024;SDS011;22890;51.820;8.682;2023-07-29T09:56:34;2.33;;;1.00;;
11024;SDS011;22890;51.820;8.682;2023-07-29T09:59:08;2.40;;;0.70;;
11024;SDS011;22890;51.820;8.682;2023-07-29T10:01:35;1.63;;;0.90;;
11024;SDS011;22890;51.820;8.682;2023-07-29T10:04:03;2.93;;;0.90;;
11024;SDS011;22890;51.820;8.682;2023-07-29T10:06:32;0.97;;;0.90;;
11024;SDS011;22890;51.820;8.682;2023-07-29T10:09:02;1.00;;;0.87;;
11024;SDS011;22890;51.820;8.682;2023-07-29T10:11:28;0.80;;;0.80;;
11024;SDS011;22890;51.820;8.682;2023-07-29T10:13:57;0.77;;;0.70;;
11024;SDS011;22890;51.820;8.682;2023-07-29T10:16:34;1.50;;;0.90;;
11024;SDS011;22890;51.820;8.682;2023-07-29T10:19:06;0.67;;;0.67;;
11024;SDS011;22890;51.820;8.682;2023-07-29T10:21:33;0.60;;;0.60;;
11024;SDS011;22890;51.820;8.682;2023-07-29T10:24:06;2.60;;;1.10;;
11024;SDS011;22890;51.820;8.682;2023-07-29T10:26:40;0.83;;;0.83;;
11024;SDS011;22890;51.820;8.682;2023-07-29T10:29:12;1.50;;;0.90;;
11024;SDS011;22890;51.820;8.682;2023-07-29T10:31:42;4.80;;;1.00;;
11024;SDS011;22890;51.820;8.682;2023-07-29T10:34:10;1.63;;;1.43;;
11024;SDS011;22890;51.820;8.682;2023-07-29T10:36:38;0.87;;;0.87;;
11024;SDS011;22890;51.820;8.682;2023-07-29T10:39:07;1.00;;;1.00;;
11024;SDS011;22890;51.820;8.682;2023-07-29T10:42:08;2.47;;;1.20;;
11024;SDS011;22890;51.820;8.682;2023-07-29T10:49:48;0.80;;;0.80;;
11024;SDS011;22890;51.820;8.682;2023-07-29T10:52:31;1.10;;;1.00;;
11024;SDS011;22890;51.820;8.682;2023-07-29T10:55:23;1.13;;;1.03;;
11024;SDS011;22890;51.820;8.682;2023-07-29T10:57:50;0.63;;;0.53;;
11024;SDS011;22890;51.820;8.682;2023-07-29T11:00:18;0.97;;;0.93;;
11024;SDS011;22890;51.820;8.682;2023-07-29T11:02:56;0.97;;;0.83;;
11024;SDS011;22890;51.820;8.682;2023-07-29T11:05:41;1.77;;;0.60;;
11024;SDS011;22890;51.820;8.682;2023-07-29T11:11:05;1.23;;;1.13;;
11024;SDS011;22890;51.820;8.682;2023-07-29T11:13:36;2.97;;;1.10;;
11024;SDS011;22890;51.820;8.682;2023-07-29T11:16:04;0.80;;;0.80;;
11024;SDS011;22890;51.820;8.682;2023-07-29T11:18:32;4.57;;;0.90;;
11024;SDS011;22890;51.820;8.682;2023-07-29T11:21:01;1.30;;;1.20;;
11024;SDS011;22890;51.820;8.682;2023-07-29T11:23:30;3.67;;;0.63;;
11024;SDS011;22890;51.820;8.682;2023-07-29T11:25:58;1.07;;;1.00;;
11024;SDS011;22890;51.820;8.682;2023-07-29T11:28:26;1.00;;;1.00;;
11024;SDS011;22890;51.820;8.682;2023-07-29T11:30:54;1.50;;;1.00;;
11024;SDS011;22890;51.820;8.682;2023-07-29T11:33:22;1.10;;;1.00;;
11024;SDS011;22890;51.820;8.682;2023-07-29T11:35:54;0.70;;;0.70;;
11024;SDS011;22890;51.820;8.682;2023-07-29T11:38:22;3.33;;;1.00;;
11024;SDS011;22890;51.820;8.682;2023-07-29T11:40:59;1.27;;;1.00;;
11024;SDS011;22890;51.820;8.682;2023-07-29T11:43:29;0.93;;;0.93;;
11024;SDS011;22890;51.820;8.682;2023-07-29T11:45:56;1.00;;;0.87;;
11024;SDS011;22890;51.820;8.682;2023-07-29T11:48:27;1.00;;;0.97;;
11024;SDS011;22890;51.820;8.682;2023-07-29T11:50:57;1.20;;;1.10;;
11024;SDS011;22890;51.820;8.682;2023-07-29T11:53:26;0.90;;;0.90;;
11024;SDS011;22890;51.820;8.682;2023-07-29T11:55:54;1.07;;;1.00;;
11024;SDS011;22890;51.820;8.682;2023-07-29T11:58:21;1.30;;;1.20;;
11024;SDS011;22890;51.820;8.682;2023-07-29T12:00:48;0.90;;;0.90;;
11024;SDS011;22890;51.820;8.682;2023-07-29T12:03:15;0.93;;;0.87;;
11024;SDS011;22890;51.820;8.682;2023-07-29T12:05:44;1.10;;;1.00;;
11024;SDS011;22890;51.820;8.682;2023-07-29T12:08:11;1.20;;;1.10;;
11024;SDS011;22890;51.820;8.682;2023-07-29T12:10:38;1.47;;;1.30;;
11024;SDS011;22890;51.820;8.682;2023-07-29T12:13:07;1.27;;;1.17;;
11024;SDS011;22890;51.820;8.682;2023-07-29T12:15:34;1.83;;;1.30;;
11024;SDS011;22890;51.820;8.682;2023-07-29T12:18:03;0.97;;;0.97;;
11024;SDS011;22890;51.820;8.682;2023-07-29T12:20:30;1.37;;;1.27;;
11024;SDS011;22890;51.820;8.682;2023-07-29T12:22:58;1.77;;;1.10;;
11024;SDS011;22890;51.820;8.682;2023-07-29T12:25:31;1.30;;;1.00;;
11024;SDS011;22890;51.820;8.682;2023-07-29T12:28:02;1.30;;;1.20;;
11024;SDS011;22890;51.820;8.682;2023-07-29T12:30:30;1.30;;;1.20;;
11024;SDS011;22890;51.820;8.682;2023-07-29T12:32:57;1.27;;;1.17;;
11024;SDS011;22890;51.820;8.682;2023-07-29T12:35:24;1.50;;;1.40;;
11024;SDS011;22890;51.820;8.682;2023-07-29T12:37:59;1.30;;;1.30;;
11024;SDS011;22890;51.820;8.682;2023-07-29T12:40:26;1.47;;;1.37;;
11024;SDS011;22890;51.820;8.682;2023-07-29T12:42:53;1.57;;;1.47;;
11024;SDS011;22890;51.820;8.682;2023-07-29T12:45:21;1.30;;;1.20;;
11024;SDS011;22890;51.820;8.682;2023-07-29T12:47:49;3.70;;;1.50;;
11024;SDS011;22890;51.820;8.682;2023-07-29T12:50:16;1.50;;;1.40;;
11024;SDS011;22890;51.820;8.682;2023-07-29T12:52:44;1.73;;;1.60;;
11024;SDS011;22890;51.820;8.682;2023-07-29T12:55:10;2.70;;;1.50;;
11024;SDS011;22890;51.820;8.682;2023-07-29T12:57:41;1.53;;;1.40;;
11024;SDS011;22890;51.820;8.682;2023-07-29T13:00:09;1.67;;;1.57;;
11024;SDS011;22890;51.820;8.682;2023-07-29T13:02:36;1.57;;;1.47;;
11024;SDS011;22890;51.820;8.682;2023-07-29T13:05:03;3.43;;;1.80;;
11024;SDS011;22890;51.820;8.682;2023-07-29T13:07:30;2.23;;;1.93;;
11024;SDS011;22890;51.820;8.682;2023-07-29T13:09:57;4.43;;;1.70;;
11024;SDS011;22890;51.820;8.682;2023-07-29T13:12:23;2.50;;;1.70;;
11024;SDS011;22890;51.820;8.682;2023-07-29T13:14:50;2.33;;;1.43;;
11024;SDS011;22890;51.820;8.682;2023-07-29T13:17:17;1.97;;;1.70;;
11024;SDS011;22890;51.820;8.682;2023-07-29T13:19:44;3.27;;;1.70;;
11024;SDS011;22890;51.820;8.682;2023-07-29T13:22:10;1.60;;;1.50;;
11024;SDS011;22890;51.820;8.682;2023-07-29T13:24:37;2.00;;;1.53;;
11024;SDS011;22890;51.820;8.682;2023-07-29T13:27:04;2.33;;;1.50;;
11024;SDS011;22890;51.820;8.682;2023-07-29T13:29:31;1.50;;;1.30;;
11024;SDS011;22890;51.820;8.682;2023-07-29T13:31:58;1.77;;;1.60;;
11024;SDS011;22890;51.820;8.682;2023-07-29T13:34:24;1.47;;;1.37;;
11024;SDS011;22890;51.820;8.682;2023-07-29T13:36:51;1.60;;;1.50;;
11024;SDS011;22890;51.820;8.682;2023-07-29T13:39:19;1.40;;;1.30;;
11024;SDS011;22890;51.820;8.682;2023-07-29T13:41:46;2.23;;;1.47;;
11024;SDS011;22890;51.820;8.682;2023-07-29T13:44:12;1.97;;;1.20;;
11024;SDS011;22890;51.820;8.682;2023-07-29T13:46:39;1.73;;;1.30;;
11024;SDS011;22890;51.820;8.682;2023-07-29T13:49:06;1.43;;;1.33;;
11024;SDS011;22890;51.820;8.682;2023-07-29T13:51:32;1.63;;;1.53;;
11024;SDS011;22890;51.820;8.682;2023-07-29T13:54:00;2.23;;;1.60;;
11024;SDS011;22890;51.820;8.682;2023-07-29T13:56:26;3.50;;;1.87;;
11024;SDS011;22890;51.820;8.682;2023-07-29T13:58:53;1.63;;;1.40;;
11024;SDS011;22890;51.820;8.682;2023-07-29T14:01:20;3.67;;;1.70;;
11024;SDS011;22890;51.820;8.682;2023-07-29T14:03:47;1.93;;;1.80;;
11024;SDS011;22890;51.820;8.682;2023-07-29T14:06:13;7.50;;;3.90;;
11024;SDS011;22890;51.820;8.682;2023-07-29T14:08:40;3.27;;;2.57;;
11024;SDS011;22890;51.820;8.682;2023-07-29T14:11:08;2.80;;;2.43;;
11024;SDS011;22890;51.820;8.682;2023-07-29T14:13:34;3.43;;;3.07;;
11024;SDS011;22890;51.820;8.682;2023-07-29T14:16:01;10.87;;;4.00;;
11024;SDS011;22890;51.820;8.682;2023-07-29T14:18:29;5.10;;;3.30;;
11024;SDS011;22890;51.820;8.682;2023-07-29T14:20:56;4.40;;;3.60;;
11024;SDS011;22890;51.820;8.682;2023-07-29T14:23:23;3.40;;;3.10;;
11024;SDS011;22890;51.820;8.682;2023-07-29T14:25:50;3.03;;;2.70;;
11024;SDS011;22890;51.820;8.682;2023-07-29T14:28:16;3.30;;;2.90;;
11024;SDS011;22890;51.820;8.682;2023-07-29T14:30:43;3.20;;;3.00;;
11024;SDS011;22890;51.820;8.682;2023-07-29T14:33:10;3.30;;;2.70;;
11024;SDS011;22890;51.820;8.682;2023-07-29T14:35:37;4.40;;;2.80;;
11024;SDS011;22890;51.820;8.682;2023-07-29T14:38:03;2.83;;;2.63;;
11024;SDS011;22890;51.820;8.682;2023-07-29T14:40:30;3.13;;;2.60;;
11024;SDS011;22890;51.820;8.682;2023-07-29T14:42:57;2.90;;;2.70;;
11024;SDS011;22890;51.820;8.682;2023-07-29T14:45:24;2.80;;;2.50;;
11024;SDS011;22890;51.820;8.682;2023-07-29T14:47:51;2.80;;;2.60;;
11024;SDS011;22890;51.820;8.682;2023-07-29T14:50:17;2.70;;;2.50;;
11024;SDS011;22890;51.820;8.682;2023-07-29T14:52:44;3.50;;;3.20;;
11024;SDS011;22890;51.820;8.682;2023-07-29T14:55:11;3.50;;;3.17;;
11024;SDS011;22890;51.820;8.682;2023-07-29T14:57:38;3.03;;;2.83;;
11024;SDS011;22890;51.820;8.682;2023-07-29T15:00:06;2.30;;;2.20;;
11024;SDS011;22890;51.820;8.682;2023-07-29T15:02:34;3.73;;;2.90;;